createdAt,value
2024-03-26T00:00:11.532Z,993.01
2024-03-26T00:01:11.527Z,993.04
2024-03-26T00:02:11.531Z,993.03
2024-03-26T00:03:11.507Z,992.99
2024-03-26T00:04:11.499Z,993.04
2024-03-26T00:05:11.466Z,992.98
2024-03-26T00:06:11.463Z,993.01
2024-03-26T00:07:11.461Z,993.00
2024-03-26T00:08:11.462Z,993.01
2024-03-26T00:09:11.437Z,993.05
2024-03-26T00:10:11.431Z,992.98
2024-03-26T00:11:11.413Z,992.97
2024-03-26T00:12:11.396Z,993.02
2024-03-26T00:13:11.411Z,993.00
2024-03-26T00:14:11.381Z,993.00
2024-03-26T00:15:11.373Z,992.96
2024-03-26T00:16:11.355Z,992.95
2024-03-26T00:17:11.354Z,992.97
2024-03-26T00:18:11.349Z,992.91
2024-03-26T00:19:11.347Z,992.90
2024-03-26T00:20:11.316Z,992.91
2024-03-26T00:21:11.306Z,992.88
2024-03-26T00:22:11.296Z,992.91
2024-03-26T00:23:11.268Z,992.80
2024-03-26T00:24:11.294Z,992.79
2024-03-26T00:25:11.250Z,992.81
2024-03-26T00:26:11.249Z,992.77
2024-03-26T00:27:11.219Z,992.71
2024-03-26T00:28:11.218Z,992.77
2024-03-26T00:29:11.214Z,992.73
2024-03-26T00:30:11.229Z,992.77
2024-03-26T00:31:11.187Z,992.69
2024-03-26T00:32:11.184Z,992.72
2024-03-26T00:33:11.167Z,992.72
2024-03-26T00:34:11.156Z,992.71
2024-03-26T00:35:11.173Z,992.66
2024-03-26T00:36:11.138Z,992.69
2024-03-26T00:37:11.122Z,992.67
2024-03-26T00:38:11.123Z,992.67
2024-03-26T00:39:11.102Z,992.64
2024-03-26T00:40:11.121Z,992.64
2024-03-26T00:41:11.065Z,992.63
2024-03-26T00:42:11.061Z,992.65
2024-03-26T00:43:11.055Z,992.62
2024-03-26T00:44:11.051Z,992.65
2024-03-26T00:45:11.046Z,992.65
2024-03-26T00:46:11.041Z,992.63
2024-03-26T00:47:11.008Z,992.59
2024-03-26T00:48:11.003Z,992.59
2024-03-26T00:49:10.986Z,992.58
2024-03-26T00:50:10.987Z,992.49
2024-03-26T00:51:10.972Z,992.50
2024-03-26T00:52:10.975Z,992.50
2024-03-26T00:53:10.942Z,992.49
2024-03-26T00:54:10.938Z,992.54
2024-03-26T00:55:10.927Z,992.51
2024-03-26T00:56:10.927Z,992.52
2024-03-26T00:57:10.899Z,992.51
2024-03-26T00:58:10.898Z,992.57
2024-03-26T00:59:10.882Z,992.49
2024-03-26T01:00:10.853Z,992.41
2024-03-26T01:01:10.868Z,992.40
2024-03-26T01:02:10.872Z,992.38
2024-03-26T01:03:10.849Z,992.36
2024-03-26T01:04:10.803Z,992.35
2024-03-26T01:05:10.804Z,992.36
2024-03-26T01:06:10.800Z,992.34
2024-03-26T01:07:10.802Z,992.37
2024-03-26T01:08:10.776Z,992.37
2024-03-26T01:09:10.750Z,992.38
2024-03-26T01:10:10.765Z,992.40
2024-03-26T01:11:10.748Z,992.37
2024-03-26T01:12:10.750Z,992.42
2024-03-26T01:13:10.719Z,992.36
2024-03-26T01:14:10.720Z,992.35
2024-03-26T01:15:10.722Z,992.33
2024-03-26T01:16:10.681Z,992.33
2024-03-26T01:17:10.683Z,992.32
2024-03-26T01:18:10.677Z,992.31
2024-03-26T01:19:10.641Z,992.28
2024-03-26T01:20:10.640Z,992.23
2024-03-26T01:21:10.631Z,992.21
2024-03-26T01:22:10.608Z,992.22
2024-03-26T01:23:10.598Z,992.21
2024-03-26T01:24:10.606Z,992.23
2024-03-26T01:25:10.591Z,992.18
2024-03-26T01:26:10.571Z,992.16
2024-03-26T01:27:10.549Z,992.20
2024-03-26T01:28:10.734Z,992.15
2024-03-26T01:29:10.565Z,992.16
2024-03-26T01:30:10.539Z,992.09
2024-03-26T01:31:10.515Z,992.10
2024-03-26T01:32:10.487Z,992.12
2024-03-26T01:33:10.509Z,992.10
2024-03-26T01:34:10.488Z,992.09
2024-03-26T01:35:10.471Z,992.07
2024-03-26T01:36:10.467Z,991.99
2024-03-26T01:37:10.444Z,992.01
2024-03-26T01:38:10.438Z,992.00
2024-03-26T01:39:10.433Z,991.94
2024-03-26T01:40:10.407Z,991.93
2024-03-26T01:41:10.384Z,991.89
2024-03-26T01:42:10.399Z,991.82
2024-03-26T01:43:10.380Z,991.87
2024-03-26T01:44:10.365Z,991.85
2024-03-26T01:45:10.390Z,991.86
2024-03-26T01:46:10.343Z,991.85
2024-03-26T01:47:10.341Z,991.84
2024-03-26T01:48:10.321Z,991.86
2024-03-26T01:49:10.314Z,991.83
2024-03-26T01:50:10.292Z,991.84
2024-03-26T01:51:10.307Z,991.81
2024-03-26T01:52:10.271Z,991.78
2024-03-26T01:53:10.252Z,991.80
2024-03-26T01:54:10.257Z,991.75
2024-03-26T01:55:10.311Z,991.77
2024-03-26T01:56:10.234Z,991.71
2024-03-26T01:57:10.222Z,991.76
2024-03-26T01:58:10.209Z,991.73
2024-03-26T01:59:10.195Z,991.72
2024-03-26T02:00:10.204Z,991.70
2024-03-26T02:01:10.173Z,991.68
2024-03-26T02:02:10.181Z,991.66
2024-03-26T02:03:10.149Z,991.71
2024-03-26T02:04:10.153Z,991.66
2024-03-26T02:05:10.134Z,991.67
2024-03-26T02:06:10.153Z,991.67
2024-03-26T02:07:10.115Z,991.64
2024-03-26T02:08:10.100Z,991.65
2024-03-26T02:09:10.073Z,991.58
2024-03-26T02:10:10.128Z,991.60
2024-03-26T02:11:10.053Z,991.60
2024-03-26T02:12:10.062Z,991.59
2024-03-26T02:13:10.042Z,991.56
2024-03-26T02:14:10.051Z,991.55
2024-03-26T02:15:10.020Z,991.54
2024-03-26T02:16:10.013Z,991.51
2024-03-26T02:17:10.038Z,991.46
2024-03-26T02:18:09.997Z,991.48
2024-03-26T02:19:09.970Z,991.51
2024-03-26T02:20:09.978Z,991.45
2024-03-26T02:21:09.968Z,991.46
2024-03-26T02:22:09.949Z,991.47
2024-03-26T02:23:09.940Z,991.46
2024-03-26T02:24:09.922Z,991.46
2024-03-26T02:25:09.945Z,991.43
2024-03-26T02:26:09.904Z,991.46
2024-03-26T02:27:09.882Z,991.44
2024-03-26T02:28:09.890Z,991.44
2024-03-26T02:29:09.873Z,991.40
2024-03-26T02:30:09.850Z,991.40
2024-03-26T02:31:09.854Z,991.35
2024-03-26T02:32:09.828Z,991.38
2024-03-26T02:33:09.809Z,991.36
2024-03-26T02:34:09.826Z,991.32
2024-03-26T02:35:09.798Z,991.30
2024-03-26T02:36:09.784Z,991.33
2024-03-26T02:37:09.766Z,991.31
2024-03-26T02:38:09.747Z,991.31
2024-03-26T02:39:09.762Z,991.29
2024-03-26T02:40:09.754Z,991.29
2024-03-26T02:41:09.736Z,991.26
2024-03-26T02:42:09.721Z,991.25
2024-03-26T02:43:09.700Z,991.24
2024-03-26T02:44:09.718Z,991.25
2024-03-26T02:45:09.687Z,991.19
2024-03-26T02:46:09.683Z,991.21
2024-03-26T02:47:09.661Z,991.24
2024-03-26T02:48:09.666Z,991.21
2024-03-26T02:49:09.645Z,991.18
2024-03-26T02:50:09.664Z,991.18
2024-03-26T02:51:09.612Z,991.18
2024-03-26T02:52:09.615Z,991.16
2024-03-26T02:53:09.597Z,991.17
2024-03-26T02:54:09.581Z,991.18
2024-03-26T02:55:09.574Z,991.13
2024-03-26T02:56:09.575Z,991.09
2024-03-26T02:57:09.540Z,991.10
2024-03-26T02:58:09.533Z,991.09
2024-03-26T02:59:09.526Z,991.04
2024-03-26T03:00:09.523Z,991.07
2024-03-26T03:01:09.526Z,991.04
2024-03-26T03:02:09.496Z,991.03
2024-03-26T03:03:09.487Z,991.01
2024-03-26T03:04:09.481Z,991.01
2024-03-26T03:05:09.462Z,990.98
2024-03-26T03:06:09.455Z,990.95
2024-03-26T03:07:09.434Z,990.94
2024-03-26T03:08:09.424Z,990.96
2024-03-26T03:09:09.415Z,990.82
2024-03-26T03:10:09.406Z,990.84
2024-03-26T03:11:09.421Z,990.90
2024-03-26T03:12:09.392Z,990.84
2024-03-26T03:13:09.368Z,990.79
2024-03-26T03:14:09.357Z,990.81
2024-03-26T03:15:09.352Z,990.82
2024-03-26T03:16:09.346Z,990.79
2024-03-26T03:17:09.349Z,990.78
2024-03-26T03:18:09.322Z,990.78
2024-03-26T03:19:09.299Z,990.73
2024-03-26T03:20:09.297Z,990.76
2024-03-26T03:21:09.281Z,990.73
2024-03-26T03:22:09.275Z,990.73
2024-03-26T03:23:09.360Z,990.72
2024-03-26T03:24:09.236Z,990.68
2024-03-26T03:25:09.230Z,990.63
2024-03-26T03:26:09.238Z,990.63
2024-03-26T03:27:09.213Z,990.62
2024-03-26T03:28:09.213Z,990.60
2024-03-26T03:29:09.209Z,990.55
2024-03-26T03:30:09.178Z,990.58
2024-03-26T03:31:09.183Z,990.53
2024-03-26T03:32:09.168Z,990.51
2024-03-26T03:33:09.149Z,990.49
2024-03-26T03:34:09.148Z,990.48
2024-03-26T03:35:09.117Z,990.44
2024-03-26T03:36:09.132Z,990.39
2024-03-26T03:37:09.106Z,990.35
2024-03-26T03:38:09.082Z,990.35
2024-03-26T03:39:09.104Z,990.35
2024-03-26T03:40:09.070Z,990.29
2024-03-26T03:41:09.061Z,990.26
2024-03-26T03:42:09.040Z,990.28
2024-03-26T03:43:09.033Z,990.26
2024-03-26T03:44:09.021Z,990.26
2024-03-26T03:45:09.042Z,990.29
2024-03-26T03:46:08.984Z,990.25
2024-03-26T03:47:08.984Z,990.20
2024-03-26T03:48:08.977Z,990.21
2024-03-26T03:49:08.961Z,990.22
2024-03-26T03:50:08.989Z,990.17
2024-03-26T03:51:08.961Z,990.16
2024-03-26T03:52:08.926Z,990.17
2024-03-26T03:53:08.927Z,990.13
2024-03-26T03:54:08.899Z,990.10
2024-03-26T03:55:08.889Z,990.12
2024-03-26T03:56:08.913Z,990.11
2024-03-26T03:57:08.875Z,990.03
2024-03-26T03:58:08.872Z,990.06
2024-03-26T03:59:08.853Z,990.01
2024-03-26T04:00:08.857Z,990.01
2024-03-26T04:01:08.842Z,989.97
2024-03-26T04:02:08.839Z,989.99
2024-03-26T04:03:08.798Z,990.00
2024-03-26T04:04:08.812Z,989.96
2024-03-26T04:05:08.779Z,989.94
2024-03-26T04:06:08.776Z,989.92
2024-03-26T04:07:08.774Z,989.93
2024-03-26T04:08:08.743Z,989.94
2024-03-26T04:09:08.747Z,989.94
2024-03-26T04:10:08.736Z,989.90
2024-03-26T04:11:08.731Z,989.92
2024-03-26T04:12:08.701Z,989.84
2024-03-26T04:13:08.711Z,989.84
2024-03-26T04:14:08.681Z,989.81
2024-03-26T04:15:08.677Z,989.83
2024-03-26T04:16:08.683Z,989.79
2024-03-26T04:17:08.647Z,989.80
2024-03-26T04:18:08.658Z,989.72
2024-03-26T04:19:08.632Z,989.74
2024-03-26T04:20:08.633Z,989.74
2024-03-26T04:21:08.600Z,989.76
2024-03-26T04:22:08.618Z,989.67
2024-03-26T04:23:08.606Z,989.65
2024-03-26T04:24:08.569Z,989.64
2024-03-26T04:25:08.559Z,989.65
2024-03-26T04:26:08.541Z,989.62
2024-03-26T04:27:08.570Z,989.59
2024-03-26T04:28:08.519Z,989.57
2024-03-26T04:29:08.619Z,989.57
2024-03-26T04:30:08.514Z,989.51
2024-03-26T04:31:08.493Z,989.53
2024-03-26T04:32:08.492Z,989.49
2024-03-26T04:33:08.466Z,989.52
2024-03-26T04:34:08.469Z,989.47
2024-03-26T04:35:08.461Z,989.48
2024-03-26T04:36:08.460Z,989.48
2024-03-26T04:37:08.414Z,989.48
2024-03-26T04:38:08.418Z,989.45
2024-03-26T04:39:08.398Z,989.47
2024-03-26T04:40:08.388Z,989.44
2024-03-26T04:41:08.424Z,989.46
2024-03-26T04:42:08.420Z,989.41
2024-03-26T04:43:08.341Z,989.40
2024-03-26T04:44:08.340Z,989.37
2024-03-26T04:45:08.332Z,989.37
2024-03-26T04:46:08.354Z,989.36
2024-03-26T04:47:08.297Z,989.28
2024-03-26T04:48:08.292Z,989.29
2024-03-26T04:49:08.301Z,989.25
2024-03-26T04:50:08.269Z,989.24
2024-03-26T04:51:08.272Z,989.21
2024-03-26T04:52:08.275Z,989.23
2024-03-26T04:53:08.239Z,989.18
2024-03-26T04:54:08.232Z,989.18
2024-03-26T04:55:08.221Z,989.20
2024-03-26T04:56:08.203Z,989.21
2024-03-26T04:57:08.226Z,989.20
2024-03-26T04:58:08.188Z,989.18
2024-03-26T04:59:08.184Z,989.15
2024-03-26T05:00:08.176Z,989.17
2024-03-26T05:01:08.149Z,989.18
2024-03-26T05:02:08.154Z,989.13
2024-03-26T05:03:08.150Z,989.16
2024-03-26T05:04:08.124Z,989.15
2024-03-26T05:05:08.095Z,989.13
2024-03-26T05:06:08.098Z,989.11
2024-03-26T05:07:08.072Z,989.13
2024-03-26T05:08:08.059Z,989.08
2024-03-26T05:09:08.064Z,989.08
2024-03-26T05:10:10.390Z,989.06
2024-03-26T05:11:08.038Z,989.08
2024-03-26T05:12:08.021Z,989.06
2024-03-26T05:13:08.014Z,989.07
2024-03-26T05:14:08.018Z,989.04
2024-03-26T05:15:07.993Z,989.04
2024-03-26T05:16:08.095Z,989.06
2024-03-26T05:17:08.007Z,989.02
2024-03-26T05:18:07.963Z,989.02
2024-03-26T05:19:07.953Z,988.99
2024-03-26T05:20:07.955Z,988.99
2024-03-26T05:21:07.930Z,988.88
2024-03-26T05:22:07.916Z,988.87
2024-03-26T05:23:07.912Z,988.90
2024-03-26T05:24:07.894Z,988.89
2024-03-26T05:25:07.896Z,988.95
2024-03-26T05:26:07.873Z,988.87
2024-03-26T05:27:07.855Z,988.84
2024-03-26T05:28:07.855Z,988.91
2024-03-26T05:29:07.822Z,988.95
2024-03-26T05:30:07.829Z,988.95
2024-03-26T05:31:07.834Z,988.97
2024-03-26T05:32:07.815Z,988.97
2024-03-26T05:33:07.788Z,988.97
2024-03-26T05:34:07.770Z,988.96
2024-03-26T05:35:07.765Z,988.93
2024-03-26T05:36:07.770Z,988.88
2024-03-26T05:37:07.787Z,988.88
2024-03-26T05:38:07.742Z,988.89
2024-03-26T05:39:07.740Z,988.94
2024-03-26T05:40:07.779Z,988.84
2024-03-26T05:41:07.728Z,988.85
2024-03-26T05:42:07.677Z,988.85
2024-03-26T05:43:07.700Z,988.81
2024-03-26T05:44:07.657Z,988.80
2024-03-26T05:45:07.648Z,988.75
2024-03-26T05:46:07.645Z,988.72
2024-03-26T05:47:07.650Z,988.71
2024-03-26T05:48:07.613Z,988.67
2024-03-26T05:49:07.646Z,988.73
2024-03-26T05:50:07.614Z,988.68
2024-03-26T05:51:07.587Z,988.68
2024-03-26T05:52:07.603Z,988.70
2024-03-26T05:53:07.627Z,988.68
2024-03-26T05:54:07.617Z,988.68
2024-03-26T05:55:07.565Z,988.64
2024-03-26T05:56:09.220Z,988.62
2024-03-26T05:57:07.518Z,988.56
2024-03-26T05:58:07.526Z,988.58
2024-03-26T05:59:07.496Z,988.60
2024-03-26T06:00:07.541Z,988.60
2024-03-26T06:01:07.469Z,988.59
2024-03-26T06:02:07.520Z,988.60
2024-03-26T06:03:07.459Z,988.64
2024-03-26T06:04:07.439Z,988.57
2024-03-26T06:05:07.540Z,988.60
2024-03-26T06:06:07.413Z,988.55
2024-03-26T06:07:07.424Z,988.58
2024-03-26T06:08:07.469Z,988.55
2024-03-26T06:09:07.442Z,988.56
2024-03-26T06:10:07.436Z,988.53
2024-03-26T06:11:07.378Z,988.51
2024-03-26T06:12:07.412Z,988.48
2024-03-26T06:13:07.823Z,988.46
2024-03-26T06:14:07.357Z,988.49
2024-03-26T06:15:07.333Z,988.55
2024-03-26T06:16:07.411Z,988.51
2024-03-26T06:17:07.304Z,988.49
2024-03-26T06:18:07.307Z,988.49
2024-03-26T06:19:07.299Z,988.43
2024-03-26T06:20:07.321Z,988.43
2024-03-26T06:21:07.272Z,988.44
2024-03-26T06:22:07.295Z,988.46
2024-03-26T06:23:07.249Z,988.48
2024-03-26T06:24:07.263Z,988.47
2024-03-26T06:25:07.196Z,988.42
2024-03-26T06:26:07.221Z,988.43
2024-03-26T06:27:09.116Z,988.46
2024-03-26T06:28:07.211Z,988.42
2024-03-26T06:29:07.203Z,988.42
2024-03-26T06:30:07.153Z,988.38
2024-03-26T06:31:07.182Z,988.37
2024-03-26T06:32:07.142Z,988.41
2024-03-26T06:33:07.122Z,988.40
2024-03-26T06:34:07.096Z,988.36
2024-03-26T06:35:07.080Z,988.41
2024-03-26T06:36:07.069Z,988.37
2024-03-26T06:37:07.083Z,988.34
2024-03-26T06:38:07.066Z,988.35
2024-03-26T06:39:07.054Z,988.36
2024-03-26T06:40:07.082Z,988.37
2024-03-26T06:41:07.032Z,988.37
2024-03-26T06:42:07.010Z,988.40
2024-03-26T06:43:07.018Z,988.40
2024-03-26T06:44:06.992Z,988.43
2024-03-26T06:45:06.998Z,988.40
2024-03-26T06:46:06.954Z,988.40
2024-03-26T06:47:07.074Z,988.43
2024-03-26T06:48:06.940Z,988.39
2024-03-26T06:49:06.994Z,988.41
2024-03-26T06:50:06.937Z,988.48
2024-03-26T06:51:06.917Z,988.44
2024-03-26T06:52:06.911Z,988.43
2024-03-26T06:53:06.908Z,988.40
2024-03-26T06:54:06.898Z,988.40
2024-03-26T06:55:06.856Z,988.39
2024-03-26T06:56:06.867Z,988.36
2024-03-26T06:57:06.828Z,988.26
2024-03-26T06:58:06.825Z,988.32
2024-03-26T06:59:06.829Z,988.24
2024-03-26T07:00:06.882Z,988.31
2024-03-26T07:01:06.830Z,988.29
2024-03-26T07:02:06.781Z,988.29
2024-03-26T07:03:06.809Z,988.28
2024-03-26T07:04:06.756Z,988.25
2024-03-26T07:05:06.775Z,988.27
2024-03-26T07:06:06.729Z,988.24
2024-03-26T07:07:06.734Z,988.26
2024-03-26T07:08:06.719Z,988.27
2024-03-26T07:09:06.735Z,988.25
2024-03-26T07:10:06.715Z,988.27
2024-03-26T07:11:06.683Z,988.33
2024-03-26T07:12:06.684Z,988.29
2024-03-26T07:13:06.670Z,988.28
2024-03-26T07:14:06.664Z,988.22
2024-03-26T07:15:06.703Z,988.25
2024-03-26T07:16:06.635Z,988.19
2024-03-26T07:17:06.614Z,988.20
2024-03-26T07:18:06.614Z,988.15
2024-03-26T07:19:06.611Z,988.11
2024-03-26T07:20:06.578Z,988.11
2024-03-26T07:21:06.580Z,988.13
2024-03-26T07:22:06.558Z,988.15
2024-03-26T07:23:06.554Z,988.11
2024-03-26T07:24:06.557Z,988.11
2024-03-26T07:25:06.529Z,988.12
2024-03-26T07:26:06.528Z,988.11
2024-03-26T07:27:06.516Z,988.12
2024-03-26T07:28:06.482Z,988.12
2024-03-26T07:29:06.479Z,988.11
2024-03-26T07:30:06.522Z,988.11
2024-03-26T07:31:06.487Z,988.12
2024-03-26T07:32:06.431Z,988.06
2024-03-26T07:33:06.445Z,988.09
2024-03-26T07:34:06.425Z,988.08
2024-03-26T07:35:06.429Z,988.05
2024-03-26T07:36:06.423Z,988.04
2024-03-26T07:37:06.382Z,988.05
2024-03-26T07:38:06.436Z,987.99
2024-03-26T07:39:06.446Z,987.96
2024-03-26T07:40:06.408Z,987.95
2024-03-26T07:41:06.451Z,987.91
2024-03-26T07:42:06.414Z,987.92
2024-03-26T07:43:13.521Z,987.93
2024-03-26T07:44:06.330Z,987.96
2024-03-26T07:45:06.339Z,987.94
2024-03-26T07:46:06.294Z,987.89
2024-03-26T07:47:06.307Z,987.90
2024-03-26T07:48:06.265Z,987.89
2024-03-26T07:49:06.263Z,987.89
2024-03-26T07:50:06.269Z,987.87
2024-03-26T07:51:06.254Z,987.91
2024-03-26T07:52:06.269Z,987.90
2024-03-26T07:53:06.225Z,987.87
2024-03-26T07:54:06.303Z,987.86
2024-03-26T07:55:06.196Z,987.90
2024-03-26T07:56:06.171Z,987.93
2024-03-26T07:57:06.181Z,987.91
2024-03-26T07:58:06.145Z,987.91
2024-03-26T07:59:06.197Z,987.92
2024-03-26T08:00:06.154Z,987.91
2024-03-26T08:01:06.152Z,987.87
2024-03-26T08:02:06.116Z,987.86
2024-03-26T08:03:06.102Z,987.84
2024-03-26T08:04:06.100Z,987.88
2024-03-26T08:05:06.108Z,987.93
2024-03-26T08:06:06.082Z,987.95
2024-03-26T08:07:06.128Z,987.89
2024-03-26T08:08:06.074Z,987.90
2024-03-26T08:09:06.126Z,987.90
2024-03-26T08:10:06.046Z,987.92
2024-03-26T08:11:06.099Z,987.85
2024-03-26T08:12:06.196Z,987.93
2024-03-26T08:13:06.037Z,987.89
2024-03-26T08:14:06.017Z,987.85
2024-03-26T08:15:06.078Z,987.81
2024-03-26T08:16:06.048Z,987.78
2024-03-26T08:17:06.009Z,987.73
2024-03-26T08:18:05.988Z,987.72
2024-03-26T08:19:06.033Z,987.72
2024-03-26T08:20:05.930Z,987.72
2024-03-26T08:21:05.950Z,987.68
2024-03-26T08:22:05.943Z,987.70
2024-03-26T08:23:05.890Z,987.67
2024-03-26T08:24:05.875Z,987.71
2024-03-26T08:25:05.853Z,987.68
2024-03-26T08:26:05.896Z,987.68
2024-03-26T08:27:05.864Z,987.63
2024-03-26T08:28:05.916Z,987.63
2024-03-26T08:29:05.844Z,987.59
2024-03-26T08:30:08.729Z,987.58
2024-03-26T08:31:05.850Z,987.66
2024-03-26T08:32:05.813Z,987.58
2024-03-26T08:33:05.824Z,987.57
2024-03-26T08:34:05.764Z,987.53
2024-03-26T08:35:05.755Z,987.52
2024-03-26T08:36:05.828Z,987.53
2024-03-26T08:37:05.732Z,987.52
2024-03-26T08:38:05.734Z,987.55
2024-03-26T08:39:05.741Z,987.51
2024-03-26T08:40:05.728Z,987.52
2024-03-26T08:41:05.706Z,987.48
2024-03-26T08:42:05.683Z,987.49
2024-03-26T08:43:05.664Z,987.47
2024-03-26T08:44:05.691Z,987.46
2024-03-26T08:45:07.559Z,987.42
2024-03-26T08:46:05.648Z,987.43
2024-03-26T08:47:05.590Z,987.40
2024-03-26T08:48:05.622Z,987.42
2024-03-26T08:49:05.595Z,987.42
2024-03-26T08:50:05.576Z,987.44
2024-03-26T08:51:05.551Z,987.44
2024-03-26T08:52:06.280Z,987.46
2024-03-26T08:53:05.569Z,987.43
2024-03-26T08:54:05.618Z,987.40
2024-03-26T08:55:05.546Z,987.37
2024-03-26T08:56:15.245Z,987.42
2024-03-26T08:57:05.527Z,987.42
2024-03-26T08:58:05.523Z,987.43
2024-03-26T08:59:05.546Z,987.41
2024-03-26T09:00:05.565Z,987.42
2024-03-26T09:01:05.520Z,987.34
2024-03-26T09:02:05.426Z,987.40
2024-03-26T09:03:05.495Z,987.37
2024-03-26T09:04:05.434Z,987.36
2024-03-26T09:05:05.472Z,987.44
2024-03-26T09:06:05.406Z,987.43
2024-03-26T09:07:05.403Z,987.43
2024-03-26T09:08:05.408Z,987.38
2024-03-26T09:09:05.498Z,987.34
2024-03-26T09:10:05.395Z,987.37
2024-03-26T09:11:05.418Z,987.33
2024-03-26T09:12:05.374Z,987.35
2024-03-26T09:13:05.331Z,987.37
2024-03-26T09:14:05.303Z,987.32
2024-03-26T09:15:05.322Z,987.32
2024-03-26T09:16:05.319Z,987.29
2024-03-26T09:17:05.292Z,987.28
2024-03-26T09:18:05.281Z,987.25
2024-03-26T09:19:05.546Z,987.27
2024-03-26T09:20:05.278Z,987.20
2024-03-26T09:21:05.255Z,987.15
2024-03-26T09:22:05.303Z,987.18
2024-03-26T09:23:05.240Z,987.12
2024-03-26T09:24:05.500Z,987.10
2024-03-26T09:25:05.195Z,987.10
2024-03-26T09:26:05.232Z,987.13
2024-03-26T09:27:05.175Z,987.08
2024-03-26T09:28:05.176Z,987.12
2024-03-26T09:29:05.231Z,987.09
2024-03-26T09:30:05.159Z,987.06
2024-03-26T09:31:06.495Z,987.11
2024-03-26T09:32:05.129Z,987.11
2024-03-26T09:33:05.115Z,987.10
2024-03-26T09:34:05.178Z,987.10
2024-03-26T09:35:05.047Z,987.13
2024-03-26T09:36:05.056Z,987.06
2024-03-26T09:37:05.090Z,987.07
2024-03-26T09:38:05.027Z,987.02
2024-03-26T09:39:08.318Z,987.04
2024-03-26T09:40:05.365Z,987.02
2024-03-26T09:41:05.037Z,987.01
2024-03-26T09:42:04.980Z,986.89
2024-03-26T09:43:05.053Z,986.90
2024-03-26T09:44:04.974Z,986.92
2024-03-26T09:45:06.318Z,986.90
2024-03-26T09:46:05.001Z,986.87
2024-03-26T09:47:04.987Z,986.81
2024-03-26T09:48:04.969Z,986.83
2024-03-26T09:49:04.973Z,986.85
2024-03-26T09:50:04.881Z,986.81
2024-03-26T09:51:04.906Z,986.81
2024-03-26T09:52:04.945Z,986.77
2024-03-26T09:53:04.886Z,986.80
2024-03-26T09:54:05.725Z,986.78
2024-03-26T09:55:04.893Z,986.79
2024-03-26T09:56:04.828Z,986.81
2024-03-26T09:57:04.883Z,986.78
2024-03-26T09:58:04.956Z,986.72
2024-03-26T09:59:04.833Z,986.73
2024-03-26T10:00:04.855Z,986.73
2024-03-26T10:01:04.792Z,986.69
2024-03-26T10:02:04.798Z,986.71
2024-03-26T10:03:05.479Z,986.72
2024-03-26T10:04:04.760Z,986.71
2024-03-26T10:05:04.753Z,986.70
2024-03-26T10:06:04.702Z,986.74
2024-03-26T10:07:04.698Z,986.71
2024-03-26T10:08:04.686Z,986.72
2024-03-26T10:09:04.729Z,986.69
2024-03-26T10:10:04.665Z,986.65
2024-03-26T10:11:04.633Z,986.69
2024-03-26T10:12:04.650Z,986.69
2024-03-26T10:13:04.621Z,986.63
2024-03-26T10:14:04.628Z,986.65
2024-03-26T10:15:04.627Z,986.63
2024-03-26T10:16:04.593Z,986.62
2024-03-26T10:17:04.582Z,986.64
2024-03-26T10:18:04.615Z,986.61
2024-03-26T10:19:04.542Z,986.61
2024-03-26T10:20:04.551Z,986.59
2024-03-26T10:21:04.524Z,986.56
2024-03-26T10:22:04.574Z,986.46
2024-03-26T10:23:04.502Z,986.49
2024-03-26T10:24:04.525Z,986.50
2024-03-26T10:25:04.510Z,986.48
2024-03-26T10:26:04.465Z,986.49
2024-03-26T10:27:04.496Z,986.55
2024-03-26T10:28:04.438Z,986.49
2024-03-26T10:29:04.435Z,986.40
2024-03-26T10:30:04.489Z,986.34
2024-03-26T10:31:04.446Z,986.35
2024-03-26T10:32:04.411Z,986.35
2024-03-26T10:33:04.420Z,986.30
2024-03-26T10:34:04.373Z,986.28
2024-03-26T10:35:04.348Z,986.26
2024-03-26T10:36:04.385Z,986.29
2024-03-26T10:37:04.388Z,986.18
2024-03-26T10:38:10.465Z,986.18
2024-03-26T10:39:04.544Z,986.19
2024-03-26T10:40:04.336Z,986.15
2024-03-26T10:41:04.552Z,986.14
2024-03-26T10:42:04.359Z,986.17
2024-03-26T10:43:04.316Z,986.19
2024-03-26T10:44:04.272Z,986.18
2024-03-26T10:45:04.320Z,986.18
2024-03-26T10:46:08.238Z,986.19
2024-03-26T10:47:04.231Z,986.18
2024-03-26T10:48:04.272Z,986.14
2024-03-26T10:49:04.248Z,986.15
2024-03-26T10:50:04.202Z,986.16
2024-03-26T10:51:04.268Z,986.14
2024-03-26T10:52:04.199Z,986.10
2024-03-26T10:53:04.166Z,986.13
2024-03-26T10:54:04.198Z,986.08
2024-03-26T10:55:04.169Z,986.12
2024-03-26T10:56:04.145Z,986.08
2024-03-26T10:57:04.198Z,986.10
2024-03-26T10:58:04.111Z,986.10
2024-03-26T10:59:04.094Z,986.10
2024-03-26T11:00:04.962Z,986.04
2024-03-26T11:01:04.096Z,986.04
2024-03-26T11:02:04.071Z,986.06
2024-03-26T11:03:04.127Z,986.00
2024-03-26T11:04:04.042Z,985.99
2024-03-26T11:05:04.025Z,986.00
2024-03-26T11:06:04.050Z,985.98
2024-03-26T11:07:04.050Z,985.99
2024-03-26T11:08:06.189Z,985.95
2024-03-26T11:09:04.017Z,985.95
2024-03-26T11:10:03.961Z,985.87
2024-03-26T11:11:03.957Z,985.89
2024-03-26T11:12:03.971Z,985.87
2024-03-26T11:13:03.951Z,985.87
2024-03-26T11:14:03.954Z,985.81
2024-03-26T11:15:03.982Z,985.85
2024-03-26T11:16:05.420Z,985.82
2024-03-26T11:17:03.884Z,985.79
2024-03-26T11:18:03.892Z,985.78
2024-03-26T11:19:03.894Z,985.79
2024-03-26T11:20:03.842Z,985.72
2024-03-26T11:21:03.950Z,985.69
2024-03-26T11:22:03.828Z,985.74
2024-03-26T11:23:03.818Z,985.70
2024-03-26T11:24:03.813Z,985.67
2024-03-26T11:25:03.835Z,985.62
2024-03-26T11:26:03.780Z,985.64
2024-03-26T11:27:05.794Z,985.64
2024-03-26T11:28:03.759Z,985.60
2024-03-26T11:29:03.756Z,985.59
2024-03-26T11:30:03.752Z,985.59
2024-03-26T11:31:03.721Z,985.53
2024-03-26T11:32:03.723Z,985.49
2024-03-26T11:33:03.715Z,985.52
2024-03-26T11:34:03.689Z,985.51
2024-03-26T11:35:03.679Z,985.55
2024-03-26T11:36:03.728Z,985.48
2024-03-26T11:37:03.652Z,985.52
2024-03-26T11:38:03.856Z,985.47
2024-03-26T11:39:03.674Z,985.44
2024-03-26T11:40:03.628Z,985.39
2024-03-26T11:41:04.639Z,985.44
2024-03-26T11:42:03.667Z,985.33
2024-03-26T11:43:03.603Z,985.37
2024-03-26T11:44:03.583Z,985.36
2024-03-26T11:45:03.592Z,985.35
2024-03-26T11:46:03.537Z,985.35
2024-03-26T11:47:03.539Z,985.32
2024-03-26T11:48:03.586Z,985.27
2024-03-26T11:49:03.533Z,985.27
2024-03-26T11:50:03.504Z,985.27
2024-03-26T11:51:03.541Z,985.28
2024-03-26T11:52:03.482Z,985.32
2024-03-26T11:53:03.468Z,985.31
2024-03-26T11:54:03.475Z,985.27
2024-03-26T11:55:03.452Z,985.22
2024-03-26T11:56:03.458Z,985.23
2024-03-26T11:57:03.446Z,985.30
2024-03-26T11:58:03.418Z,985.24
2024-03-26T11:59:03.392Z,985.23
2024-03-26T12:00:03.423Z,985.22
2024-03-26T12:01:03.382Z,985.21
2024-03-26T12:02:03.388Z,985.24
2024-03-26T12:03:04.144Z,985.23
2024-03-26T12:04:03.343Z,985.22
2024-03-26T12:05:03.762Z,985.16
2024-03-26T12:06:03.333Z,985.14
2024-03-26T12:07:03.304Z,985.12
2024-03-26T12:08:03.308Z,985.15
2024-03-26T12:09:03.297Z,985.17
2024-03-26T12:10:03.291Z,985.17
2024-03-26T12:11:03.286Z,985.21
2024-03-26T12:12:03.314Z,985.11
2024-03-26T12:13:03.266Z,985.13
2024-03-26T12:14:03.239Z,985.07
2024-03-26T12:15:03.236Z,985.11
2024-03-26T12:16:03.208Z,985.05
2024-03-26T12:17:03.224Z,985.04
2024-03-26T12:18:03.211Z,985.08
2024-03-26T12:19:03.184Z,985.04
2024-03-26T12:20:03.192Z,985.02
2024-03-26T12:21:03.150Z,984.97
2024-03-26T12:22:05.270Z,984.98
2024-03-26T12:23:03.179Z,984.95
2024-03-26T12:24:03.127Z,984.92
2024-03-26T12:25:03.113Z,984.95
2024-03-26T12:26:03.109Z,984.93
2024-03-26T12:27:03.093Z,984.96
2024-03-26T12:28:03.108Z,984.93